NCAR-RAP Real-Time Weather Data

Output produced by METARs form (23 February 2020  02:37 UTC)
found at http://weather.rap.ucar.edu/surface/
 
KORF 230151Z 23005KT 10SM CLR 04/M04 A3034 RMK AO2 SLP273 T00391044
KORF 230051Z 23005KT 10SM CLR 04/M05 A3034 RMK AO2 SLP273 T00441050
KORF 222351Z 24005KT 10SM CLR 06/M05 A3033 RMK AO2 SLP270 T00561050 10111 20050 53003
KORF 222251Z 20007KT 10SM CLR 07/M06 A3031 RMK AO2 SLP264 T00721056
KORF 222151Z 20009KT 10SM CLR 10/M08 A3031 RMK AO2 SLP263 T01001078
KORF 222051Z 22009KT 10SM CLR 11/M08 A3032 RMK AO2 SLP267 T01061083 56022
KORF 221951Z 23005G23KT 10SM CLR 11/M10 A3034 RMK AO2 SLP272 T01111100
KORF 221851Z 20005KT 10SM CLR 10/M11 A3036 RMK AO2 SLP278 T01001106
KORF 221751Z 24007KT 190V280 10SM CLR 09/M10 A3039 RMK AO2 SLP289 T00941100 10094 21033 58024
KORF 221651Z VRB03KT 10SM CLR 08/M11 A3043 RMK AO2 SLP304 T00831111
KORF 221551Z 22005KT 10SM CLR 07/M11 A3045 RMK AO2 SLP310 T00671106
KORF 221451Z 23006KT 10SM CLR 05/M10 A3046 RMK AO2 SLP313 T00501100 50008
KORF 221351Z 25004KT 10SM CLR 02/M07 A3046 RMK AO2 SLP315 T00221067
KORF 221314Z 23005KT 10SM CLR 01/M06 A3045 RMK AO2 T00061061
KORF 221251Z 23006KT 10SM CLR M01/M05 A3045 RMK AO2 SLP309 T10061050
KORF 221151Z 22005KT 10SM CLR M03/M07 A3043 RMK AO2 SLP304 T10331072 10000 21039 52010
KORF 221051Z 22005KT 10SM CLR M03/M07 A3042 RMK AO2 SLP299 T10331072
KORF 220951Z 25003KT 10SM CLR M02/M06 A3042 RMK AO2 SLP299 T10221061
KORF 220851Z 00000KT 10SM CLR M03/M08 A3040 RMK AO2 SLP294 T10331078 56012
KORF 220751Z 00000KT 10SM CLR M01/M07 A3041 RMK AO2 SLP295 T10111072
KORF 220651Z 00000KT 10SM CLR M03/M09 A3042 RMK AO2 SLP301 T10331089
KORF 220551Z 00000KT 10SM CLR 00/M08 A3044 RMK AO2 SLP306 T00001078 10022 20000 58012
KORF 220451Z 30003KT 10SM CLR 01/M09 A3045 RMK AO2 SLP310 T00061089 400280000
KORF 220351Z VRB03KT 10SM CLR 01/M08 A3047 RMK AO2 SLP318 T00111083
KORF 220251Z 35008KT 10SM CLR 02/M10 A3047 RMK AO2 SLP318 T00171100 58001
KORF 220151Z 36010KT 10SM CLR 02/M09 A3048 RMK AO2 SLP321 T00171094
KORF 220051Z 01011KT 10SM CLR 02/M11 A3048 RMK AO2 SLP320 T00171106
KORF 212351Z 01011KT 10SM CLR 01/M11 A3048 RMK AO2 SLP319 T00111106 10022 20006 53001
KORF 212251Z 01012G18KT 10SM CLR 01/M08 A3047 RMK AO2 SLP318 T00111078
KORF 212151Z 01013KT 10SM CLR 01/M07 A3047 RMK AO2 SLP317 T00111072
KORF 212051Z 01015G23KT 10SM FEW033 02/M07 A3047 RMK AO2 PK WND 36026/2000 SLP319 T00171072 56005
KORF 211951Z 35018G25KT 10SM FEW032 02/M07 A3048 RMK AO2 SLP320 T00171072
KORF 211851Z 36019G27KT 10SM BKN031 01/M07 A3048 RMK AO2 PK WND 02028/1829 SLP322 T00111072
KORF 211751Z 01019G24KT 10SM SCT031 02/M07 A3049 RMK AO2 PK WND 03029/1731 SLP324 T00171072 10017 20000 50006
KORF 211651Z 01021G29KT 10SM SCT032 01/M08 A3050 RMK AO2 PK WND 02031/1559 SLP328 T00061078
KORF 211551Z 36020G31KT 10SM SCT033 01/M08 A3049 RMK AO2 PK WND 36031/1546 SLP324 T00061078
KORF 211451Z 01020G29KT 10SM FEW034 00/M08 A3047 RMK AO2 PK WND 35030/1430 SLP318 T00001078 51029
KORF 211351Z 03020G28KT 10SM SCT034 01/M07 A3046 RMK AO2 PK WND 02033/1320 SLP313 T00061067
KORF 211251Z 02023G33KT 10SM BKN037 OVC044 01/M07 A3043 RMK AO2 PK WND 04033/1244 PRESRR SLP305 T00061067
KORF 211151Z 03023G30KT 10SM OVC035 01/M06 A3038 RMK AO2 PK WND 04032/1107 SLP288 60000 70051 T00111056 10022 20011 53023
KORF 211051Z 03024G32KT 10SM OVC040 01/M06 A3036 RMK AO2 PK WND 04034/1021 SLP280 T00111056
KORF 210951Z 03025G36KT 10SM OVC045 02/M07 A3033 RMK AO2 PK WND 02036/0944 SLP271 T00171067
KORF 210851Z 02027G33KT 10SM BKN047 OVC055 02/M06 A3032 RMK AO2 PK WND 03033/0831 SNE0754 SLP266 P0000 60000 T00221056 55009
KORF 210751Z 04019G34KT 9SM -SN BKN032 OVC045 02/M06 A3032 RMK AO2 PK WND 03036/0737 SNB24 SLP265 P0000 T00221056
KORF 210651Z 05017G23KT 9SM FEW020 BKN038 OVC070 01/M03 A3032 RMK AO2 PK WND 04031/0622 SNE20B24E48 SLP268 P0000 T00111028
KORF 210621Z 04021G31KT 9SM FEW013 SCT022 OVC033 01/M02 A3033 RMK AO2 PK WND 04031/0619 SNE20 P0000 T00111022
KORF 210551Z 03019G27KT 3SM -SN BKN024 OVC028 02/M02 A3035 RMK AO2 PK WND 03030/0540 SLP275 P0000 60024 T00171022 10028 20017 53004
KORF 210516Z 04015G27KT 8SM -SN SCT011 BKN030 OVC039 02/M01 A3034 RMK AO2 PK WND 04027/0511 P0000 T00221006
KORF 210451Z 03019G24KT 8SM -SN SCT008 BKN012 OVC025 02/01 A3033 RMK AO2 SLP271 P0004 T00220006 400720017
KORF 210351Z 01015G22KT 4SM -SN BR BKN007 OVC014 02/01 A3033 RMK AO2 SLP270 P0005 T00220006
KORF 210251Z 02017G23KT 4SM -SN BR BKN006 BKN010 OVC014 02/01 A3033 RMK AO2 SLP269 P0005 60015 T00220006 56012